sensor_id;sensor_type;location;lat;lon;timestamp;P1;durP1;ratioP1;P2;durP2;ratioP2
45007;SDS011;30743;52.008;5.644;2022-12-18T00:01:22;41.67;;;17.00;;
45007;SDS011;30743;52.008;5.644;2022-12-18T00:03:49;32.22;;;16.92;;
45007;SDS011;30743;52.008;5.644;2022-12-18T00:06:16;38.22;;;16.70;;
45007;SDS011;30743;52.008;5.644;2022-12-18T00:08:42;36.03;;;16.55;;
45007;SDS011;30743;52.008;5.644;2022-12-18T00:11:10;33.97;;;15.80;;
45007;SDS011;30743;52.008;5.644;2022-12-18T00:13:37;33.90;;;16.85;;
45007;SDS011;30743;52.008;5.644;2022-12-18T00:16:03;34.67;;;15.68;;
45007;SDS011;30743;52.008;5.644;2022-12-18T00:18:31;30.33;;;15.52;;
45007;SDS011;30743;52.008;5.644;2022-12-18T00:21:00;32.63;;;16.30;;
45007;SDS011;30743;52.008;5.644;2022-12-18T00:23:27;33.85;;;15.75;;
45007;SDS011;30743;52.008;5.644;2022-12-18T00:25:53;33.40;;;15.90;;
45007;SDS011;30743;52.008;5.644;2022-12-18T00:28:19;35.05;;;17.25;;
45007;SDS011;30743;52.008;5.644;2022-12-18T00:30:44;32.28;;;16.05;;
45007;SDS011;30743;52.008;5.644;2022-12-18T00:33:10;29.25;;;15.27;;
45007;SDS011;30743;52.008;5.644;2022-12-18T00:35:35;37.63;;;17.75;;
45007;SDS011;30743;52.008;5.644;2022-12-18T00:38:01;32.00;;;15.52;;
45007;SDS011;30743;52.008;5.644;2022-12-18T00:40:26;31.05;;;16.40;;
45007;SDS011;30743;52.008;5.644;2022-12-18T00:42:52;33.40;;;15.93;;
45007;SDS011;30743;52.008;5.644;2022-12-18T00:45:20;34.50;;;15.75;;
45007;SDS011;30743;52.008;5.644;2022-12-18T00:47:47;35.80;;;17.27;;
45007;SDS011;30743;52.008;5.644;2022-12-18T00:50:12;34.22;;;15.93;;
45007;SDS011;30743;52.008;5.644;2022-12-18T00:52:38;33.05;;;15.32;;
45007;SDS011;30743;52.008;5.644;2022-12-18T00:55:03;33.05;;;15.35;;
45007;SDS011;30743;52.008;5.644;2022-12-18T00:57:29;32.25;;;15.80;;
45007;SDS011;30743;52.008;5.644;2022-12-18T00:59:55;32.88;;;14.73;;
45007;SDS011;30743;52.008;5.644;2022-12-18T01:02:20;33.75;;;15.88;;
45007;SDS011;30743;52.008;5.644;2022-12-18T01:04:46;30.63;;;15.45;;
45007;SDS011;30743;52.008;5.644;2022-12-18T01:07:11;26.90;;;14.73;;
45007;SDS011;30743;52.008;5.644;2022-12-18T01:09:37;29.08;;;14.45;;
45007;SDS011;30743;52.008;5.644;2022-12-18T01:12:02;28.45;;;14.38;;
45007;SDS011;30743;52.008;5.644;2022-12-18T01:14:28;26.02;;;14.32;;
45007;SDS011;30743;52.008;5.644;2022-12-18T01:16:53;26.25;;;14.82;;
45007;SDS011;30743;52.008;5.644;2022-12-18T01:19:19;29.65;;;14.20;;
45007;SDS011;30743;52.008;5.644;2022-12-18T01:21:44;28.58;;;14.57;;
45007;SDS011;30743;52.008;5.644;2022-12-18T01:24:10;29.30;;;14.70;;
45007;SDS011;30743;52.008;5.644;2022-12-18T01:26:36;31.58;;;14.82;;
45007;SDS011;30743;52.008;5.644;2022-12-18T01:29:02;27.00;;;14.45;;
45007;SDS011;30743;52.008;5.644;2022-12-18T01:31:28;27.45;;;14.48;;
45007;SDS011;30743;52.008;5.644;2022-12-18T01:33:55;30.65;;;14.43;;
45007;SDS011;30743;52.008;5.644;2022-12-18T01:36:22;29.60;;;14.35;;
45007;SDS011;30743;52.008;5.644;2022-12-18T01:38:56;28.70;;;14.23;;
45007;SDS011;30743;52.008;5.644;2022-12-18T01:41:25;27.50;;;14.82;;
45007;SDS011;30743;52.008;5.644;2022-12-18T01:48:02;27.80;;;14.48;;
45007;SDS011;30743;52.008;5.644;2022-12-18T01:50:06;25.02;;;12.60;;
45007;SDS011;30743;52.008;5.644;2022-12-18T01:52:40;22.00;;;12.57;;
45007;SDS011;30743;52.008;5.644;2022-12-18T01:55:11;27.10;;;13.32;;
45007;SDS011;30743;52.008;5.644;2022-12-18T01:57:39;23.70;;;13.10;;
45007;SDS011;30743;52.008;5.644;2022-12-18T02:00:07;23.35;;;12.80;;
45007;SDS011;30743;52.008;5.644;2022-12-18T02:02:44;23.42;;;12.85;;
45007;SDS011;30743;52.008;5.644;2022-12-18T02:05:13;28.23;;;12.82;;
45007;SDS011;30743;52.008;5.644;2022-12-18T02:10:27;24.42;;;12.07;;
45007;SDS011;30743;52.008;5.644;2022-12-18T02:13:04;23.45;;;12.27;;
45007;SDS011;30743;52.008;5.644;2022-12-18T02:16:02;23.17;;;12.68;;
45007;SDS011;30743;52.008;5.644;2022-12-18T02:18:38;24.65;;;12.73;;
45007;SDS011;30743;52.008;5.644;2022-12-18T02:21:20;25.77;;;12.48;;
45007;SDS011;30743;52.008;5.644;2022-12-18T02:24:16;23.85;;;11.90;;
45007;SDS011;30743;52.008;5.644;2022-12-18T02:26:44;22.08;;;12.43;;
45007;SDS011;30743;52.008;5.644;2022-12-18T02:29:22;22.63;;;12.20;;
45007;SDS011;30743;52.008;5.644;2022-12-18T02:31:56;20.73;;;11.27;;
45007;SDS011;30743;52.008;5.644;2022-12-18T02:34:28;23.95;;;12.20;;
45007;SDS011;30743;52.008;5.644;2022-12-18T02:36:56;23.95;;;12.07;;
45007;SDS011;30743;52.008;5.644;2022-12-18T02:39:25;23.55;;;12.02;;
45007;SDS011;30743;52.008;5.644;2022-12-18T02:41:53;22.48;;;11.48;;
45007;SDS011;30743;52.008;5.644;2022-12-18T02:44:19;23.40;;;12.07;;
45007;SDS011;30743;52.008;5.644;2022-12-18T02:46:53;21.75;;;11.30;;
45007;SDS011;30743;52.008;5.644;2022-12-18T03:00:22;19.13;;;10.73;;
45007;SDS011;30743;52.008;5.644;2022-12-18T03:03:13;24.42;;;11.30;;
45007;SDS011;30743;52.008;5.644;2022-12-18T03:08:19;21.00;;;10.75;;
45007;SDS011;30743;52.008;5.644;2022-12-18T03:11:10;20.13;;;10.45;;
45007;SDS011;30743;52.008;5.644;2022-12-18T03:13:39;19.38;;;10.75;;
45007;SDS011;30743;52.008;5.644;2022-12-18T03:16:10;20.80;;;10.20;;
45007;SDS011;30743;52.008;5.644;2022-12-18T03:18:42;19.30;;;10.60;;
45007;SDS011;30743;52.008;5.644;2022-12-18T03:21:17;22.45;;;10.27;;
45007;SDS011;30743;52.008;5.644;2022-12-18T03:23:48;18.23;;;10.02;;
45007;SDS011;30743;52.008;5.644;2022-12-18T03:26:17;17.15;;;10.48;;
45007;SDS011;30743;52.008;5.644;2022-12-18T03:28:50;20.67;;;10.48;;
45007;SDS011;30743;52.008;5.644;2022-12-18T03:31:18;18.98;;;10.35;;
45007;SDS011;30743;52.008;5.644;2022-12-18T03:36:23;16.50;;;9.30;;
45007;SDS011;30743;52.008;5.644;2022-12-18T03:38:49;20.27;;;10.60;;
45007;SDS011;30743;52.008;5.644;2022-12-18T03:41:18;20.67;;;9.90;;
45007;SDS011;30743;52.008;5.644;2022-12-18T03:44:12;20.20;;;11.07;;
45007;SDS011;30743;52.008;5.644;2022-12-18T03:49:12;18.63;;;9.95;;
45007;SDS011;30743;52.008;5.644;2022-12-18T03:51:50;18.02;;;9.48;;
45007;SDS011;30743;52.008;5.644;2022-12-18T03:54:19;17.60;;;9.98;;
45007;SDS011;30743;52.008;5.644;2022-12-18T03:56:48;16.40;;;9.10;;
45007;SDS011;30743;52.008;5.644;2022-12-18T03:59:18;17.40;;;10.02;;
45007;SDS011;30743;52.008;5.644;2022-12-18T04:01:49;17.17;;;9.45;;
45007;SDS011;30743;52.008;5.644;2022-12-18T04:04:17;20.35;;;9.82;;
45007;SDS011;30743;52.008;5.644;2022-12-18T04:06:43;16.17;;;9.40;;
45007;SDS011;30743;52.008;5.644;2022-12-18T04:09:12;16.50;;;9.43;;
45007;SDS011;30743;52.008;5.644;2022-12-18T04:11:38;21.67;;;10.50;;
45007;SDS011;30743;52.008;5.644;2022-12-18T04:14:05;20.05;;;10.10;;
45007;SDS011;30743;52.008;5.644;2022-12-18T04:16:31;17.83;;;10.27;;
45007;SDS011;30743;52.008;5.644;2022-12-18T04:18:56;15.90;;;9.30;;
45007;SDS011;30743;52.008;5.644;2022-12-18T04:21:22;17.75;;;10.15;;
45007;SDS011;30743;52.008;5.644;2022-12-18T04:23:48;15.13;;;9.20;;
45007;SDS011;30743;52.008;5.644;2022-12-18T04:26:13;17.55;;;9.35;;
45007;SDS011;30743;52.008;5.644;2022-12-18T04:28:39;15.35;;;9.25;;
45007;SDS011;30743;52.008;5.644;2022-12-18T04:31:04;17.45;;;10.55;;
45007;SDS011;30743;52.008;5.644;2022-12-18T04:33:30;16.10;;;9.35;;
45007;SDS011;30743;52.008;5.644;2022-12-18T04:35:55;17.00;;;9.27;;
45007;SDS011;30743;52.008;5.644;2022-12-18T04:38:21;17.67;;;9.25;;
45007;SDS011;30743;52.008;5.644;2022-12-18T04:40:46;17.33;;;9.32;;
45007;SDS011;30743;52.008;5.644;2022-12-18T04:43:12;15.80;;;8.98;;
45007;SDS011;30743;52.008;5.644;2022-12-18T04:45:37;16.40;;;9.05;;
45007;SDS011;30743;52.008;5.644;2022-12-18T04:48:03;16.08;;;9.15;;
45007;SDS011;30743;52.008;5.644;2022-12-18T04:50:29;14.57;;;9.00;;
45007;SDS011;30743;52.008;5.644;2022-12-18T04:52:55;16.17;;;8.68;;
45007;SDS011;30743;52.008;5.644;2022-12-18T04:55:21;13.40;;;7.90;;
45007;SDS011;30743;52.008;5.644;2022-12-18T04:57:49;15.10;;;8.05;;
45007;SDS011;30743;52.008;5.644;2022-12-18T05:00:15;16.95;;;8.73;;
45007;SDS011;30743;52.008;5.644;2022-12-18T05:02:41;14.93;;;8.48;;
45007;SDS011;30743;52.008;5.644;2022-12-18T05:05:06;18.17;;;8.40;;
45007;SDS011;30743;52.008;5.644;2022-12-18T05:07:32;20.17;;;9.10;;
45007;SDS011;30743;52.008;5.644;2022-12-18T05:09:58;18.80;;;9.25;;
45007;SDS011;30743;52.008;5.644;2022-12-18T05:12:23;15.27;;;7.80;;
45007;SDS011;30743;52.008;5.644;2022-12-18T05:14:49;15.43;;;8.88;;
45007;SDS011;30743;52.008;5.644;2022-12-18T05:17:15;14.07;;;8.75;;
45007;SDS011;30743;52.008;5.644;2022-12-18T05:19:40;15.63;;;8.63;;
45007;SDS011;30743;52.008;5.644;2022-12-18T05:22:06;15.30;;;8.60;;
45007;SDS011;30743;52.008;5.644;2022-12-18T05:24:31;15.25;;;8.18;;
45007;SDS011;30743;52.008;5.644;2022-12-18T05:26:57;14.63;;;8.27;;
45007;SDS011;30743;52.008;5.644;2022-12-18T05:29:22;16.60;;;8.27;;
45007;SDS011;30743;52.008;5.644;2022-12-18T05:31:48;13.80;;;8.18;;
45007;SDS011;30743;52.008;5.644;2022-12-18T05:34:14;15.60;;;8.52;;
45007;SDS011;30743;52.008;5.644;2022-12-18T05:36:39;14.25;;;8.20;;
45007;SDS011;30743;52.008;5.644;2022-12-18T05:39:05;14.00;;;8.43;;
45007;SDS011;30743;52.008;5.644;2022-12-18T05:41:31;13.07;;;7.95;;
45007;SDS011;30743;52.008;5.644;2022-12-18T05:43:56;13.95;;;7.65;;
45007;SDS011;30743;52.008;5.644;2022-12-18T05:46:22;15.00;;;8.45;;
45007;SDS011;30743;52.008;5.644;2022-12-18T05:48:49;11.63;;;7.35;;
45007;SDS011;30743;52.008;5.644;2022-12-18T05:51:16;12.57;;;6.97;;
45007;SDS011;30743;52.008;5.644;2022-12-18T05:53:44;13.68;;;8.05;;
45007;SDS011;30743;52.008;5.644;2022-12-18T05:56:14;11.65;;;7.20;;
45007;SDS011;30743;52.008;5.644;2022-12-18T05:58:42;11.75;;;7.20;;
45007;SDS011;30743;52.008;5.644;2022-12-18T06:01:09;13.65;;;6.82;;
45007;SDS011;30743;52.008;5.644;2022-12-18T06:03:36;12.48;;;6.88;;
45007;SDS011;30743;52.008;5.644;2022-12-18T06:06:02;14.35;;;7.60;;
45007;SDS011;30743;52.008;5.644;2022-12-18T06:08:28;13.48;;;7.32;;
45007;SDS011;30743;52.008;5.644;2022-12-18T06:10:53;12.45;;;7.53;;
45007;SDS011;30743;52.008;5.644;2022-12-18T06:13:19;12.57;;;7.57;;
45007;SDS011;30743;52.008;5.644;2022-12-18T06:15:45;11.38;;;6.63;;
45007;SDS011;30743;52.008;5.644;2022-12-18T06:18:10;12.50;;;7.43;;
45007;SDS011;30743;52.008;5.644;2022-12-18T06:20:36;11.43;;;6.65;;
45007;SDS011;30743;52.008;5.644;2022-12-18T06:23:04;12.25;;;7.15;;
45007;SDS011;30743;52.008;5.644;2022-12-18T06:25:30;12.95;;;7.47;;
45007;SDS011;30743;52.008;5.644;2022-12-18T06:27:55;14.02;;;7.30;;
45007;SDS011;30743;52.008;5.644;2022-12-18T06:30:21;11.90;;;7.15;;
45007;SDS011;30743;52.008;5.644;2022-12-18T06:32:47;11.98;;;7.28;;
45007;SDS011;30743;52.008;5.644;2022-12-18T06:35:14;11.95;;;6.65;;
45007;SDS011;30743;52.008;5.644;2022-12-18T06:37:39;13.38;;;7.35;;
45007;SDS011;30743;52.008;5.644;2022-12-18T06:40:05;13.38;;;7.30;;
45007;SDS011;30743;52.008;5.644;2022-12-18T06:42:31;12.48;;;6.68;;
45007;SDS011;30743;52.008;5.644;2022-12-18T06:44:57;13.80;;;7.07;;
45007;SDS011;30743;52.008;5.644;2022-12-18T06:47:22;12.35;;;6.55;;
45007;SDS011;30743;52.008;5.644;2022-12-18T06:49:48;14.02;;;7.25;;
45007;SDS011;30743;52.008;5.644;2022-12-18T06:52:13;14.18;;;7.15;;
45007;SDS011;30743;52.008;5.644;2022-12-18T06:54:41;10.73;;;6.78;;
45007;SDS011;30743;52.008;5.644;2022-12-18T06:57:07;14.20;;;6.78;;
45007;SDS011;30743;52.008;5.644;2022-12-18T06:59:32;12.45;;;6.88;;
45007;SDS011;30743;52.008;5.644;2022-12-18T07:01:58;8.95;;;6.30;;
45007;SDS011;30743;52.008;5.644;2022-12-18T07:04:27;15.55;;;7.13;;
45007;SDS011;30743;52.008;5.644;2022-12-18T07:06:54;14.25;;;7.55;;
45007;SDS011;30743;52.008;5.644;2022-12-18T07:09:19;14.43;;;7.80;;
45007;SDS011;30743;52.008;5.644;2022-12-18T07:11:45;10.95;;;6.63;;
45007;SDS011;30743;52.008;5.644;2022-12-18T07:14:10;14.13;;;7.50;;
45007;SDS011;30743;52.008;5.644;2022-12-18T07:16:36;11.88;;;6.95;;
45007;SDS011;30743;52.008;5.644;2022-12-18T07:19:01;13.20;;;7.10;;
45007;SDS011;30743;52.008;5.644;2022-12-18T07:21:27;10.85;;;7.28;;
45007;SDS011;30743;52.008;5.644;2022-12-18T07:23:53;10.85;;;6.97;;
45007;SDS011;30743;52.008;5.644;2022-12-18T07:26:19;12.77;;;7.00;;
45007;SDS011;30743;52.008;5.644;2022-12-18T07:28:46;11.93;;;7.10;;
45007;SDS011;30743;52.008;5.644;2022-12-18T07:31:13;11.00;;;7.55;;
45007;SDS011;30743;52.008;5.644;2022-12-18T07:33:40;15.07;;;6.78;;
45007;SDS011;30743;52.008;5.644;2022-12-18T07:36:07;12.68;;;7.13;;
45007;SDS011;30743;52.008;5.644;2022-12-18T07:38:34;13.35;;;7.60;;
45007;SDS011;30743;52.008;5.644;2022-12-18T07:41:01;13.35;;;7.65;;
45007;SDS011;30743;52.008;5.644;2022-12-18T07:43:30;13.35;;;7.18;;
45007;SDS011;30743;52.008;5.644;2022-12-18T07:45:56;11.40;;;6.65;;
45007;SDS011;30743;52.008;5.644;2022-12-18T07:48:21;13.55;;;6.70;;
45007;SDS011;30743;52.008;5.644;2022-12-18T07:50:47;13.20;;;7.53;;
45007;SDS011;30743;52.008;5.644;2022-12-18T07:53:12;12.70;;;7.20;;
45007;SDS011;30743;52.008;5.644;2022-12-18T07:55:39;12.45;;;7.47;;
45007;SDS011;30743;52.008;5.644;2022-12-18T07:58:06;12.32;;;7.43;;
45007;SDS011;30743;52.008;5.644;2022-12-18T08:00:31;15.20;;;7.38;;
45007;SDS011;30743;52.008;5.644;2022-12-18T08:02:57;13.68;;;7.10;;
45007;SDS011;30743;52.008;5.644;2022-12-18T08:05:23;13.20;;;7.07;;
45007;SDS011;30743;52.008;5.644;2022-12-18T08:07:49;14.88;;;7.10;;
45007;SDS011;30743;52.008;5.644;2022-12-18T08:10:14;14.32;;;7.35;;
45007;SDS011;30743;52.008;5.644;2022-12-18T08:12:40;12.98;;;7.13;;
45007;SDS011;30743;52.008;5.644;2022-12-18T08:15:06;11.93;;;6.93;;
45007;SDS011;30743;52.008;5.644;2022-12-18T08:17:31;12.15;;;6.80;;
45007;SDS011;30743;52.008;5.644;2022-12-18T08:19:57;13.30;;;7.75;;
45007;SDS011;30743;52.008;5.644;2022-12-18T08:22:23;12.27;;;7.88;;
45007;SDS011;30743;52.008;5.644;2022-12-18T08:24:48;11.45;;;7.22;;
45007;SDS011;30743;52.008;5.644;2022-12-18T08:27:14;12.13;;;7.05;;
45007;SDS011;30743;52.008;5.644;2022-12-18T08:29:39;11.88;;;6.72;;
45007;SDS011;30743;52.008;5.644;2022-12-18T08:32:05;10.77;;;6.57;;
45007;SDS011;30743;52.008;5.644;2022-12-18T08:34:30;12.77;;;7.35;;
45007;SDS011;30743;52.008;5.644;2022-12-18T08:36:56;10.38;;;6.07;;
45007;SDS011;30743;52.008;5.644;2022-12-18T08:39:21;11.85;;;6.63;;
45007;SDS011;30743;52.008;5.644;2022-12-18T08:41:47;12.60;;;6.20;;
45007;SDS011;30743;52.008;5.644;2022-12-18T08:44:32;11.10;;;6.45;;
45007;SDS011;30743;52.008;5.644;2022-12-18T08:47:04;10.85;;;6.50;;
45007;SDS011;30743;52.008;5.644;2022-12-18T08:49:30;9.82;;;6.78;;
45007;SDS011;30743;52.008;5.644;2022-12-18T08:51:56;11.25;;;6.85;;
45007;SDS011;30743;52.008;5.644;2022-12-18T08:54:22;10.40;;;6.82;;
45007;SDS011;30743;52.008;5.644;2022-12-18T08:56:49;12.85;;;6.47;;
45007;SDS011;30743;52.008;5.644;2022-12-18T08:59:15;8.57;;;5.88;;
45007;SDS011;30743;52.008;5.644;2022-12-18T09:01:44;10.05;;;5.80;;
45007;SDS011;30743;52.008;5.644;2022-12-18T09:04:10;9.95;;;6.38;;
45007;SDS011;30743;52.008;5.644;2022-12-18T09:06:36;12.18;;;6.18;;
45007;SDS011;30743;52.008;5.644;2022-12-18T09:09:02;10.18;;;6.18;;
45007;SDS011;30743;52.008;5.644;2022-12-18T09:11:29;10.23;;;6.38;;
45007;SDS011;30743;52.008;5.644;2022-12-18T09:13:55;10.52;;;6.57;;
45007;SDS011;30743;52.008;5.644;2022-12-18T09:16:22;10.55;;;5.95;;
45007;SDS011;30743;52.008;5.644;2022-12-18T09:18:48;9.55;;;5.85;;
45007;SDS011;30743;52.008;5.644;2022-12-18T09:21:15;10.90;;;6.30;;
45007;SDS011;30743;52.008;5.644;2022-12-18T09:23:42;10.93;;;6.55;;
45007;SDS011;30743;52.008;5.644;2022-12-18T09:26:08;10.13;;;6.00;;
45007;SDS011;30743;52.008;5.644;2022-12-18T09:28:34;10.55;;;5.85;;
45007;SDS011;30743;52.008;5.644;2022-12-18T09:31:03;11.80;;;6.10;;
45007;SDS011;30743;52.008;5.644;2022-12-18T09:33:31;10.25;;;6.07;;
45007;SDS011;30743;52.008;5.644;2022-12-18T09:35:57;10.25;;;5.65;;
45007;SDS011;30743;52.008;5.644;2022-12-18T09:38:22;10.10;;;6.63;;
45007;SDS011;30743;52.008;5.644;2022-12-18T09:40:49;9.90;;;5.70;;
45007;SDS011;30743;52.008;5.644;2022-12-18T09:46:05;10.75;;;5.68;;
45007;SDS011;30743;52.008;5.644;2022-12-18T09:48:38;10.73;;;6.03;;
45007;SDS011;30743;52.008;5.644;2022-12-18T09:51:15;9.60;;;6.25;;
45007;SDS011;30743;52.008;5.644;2022-12-18T09:53:41;10.13;;;5.55;;
45007;SDS011;30743;52.008;5.644;2022-12-18T09:56:19;9.90;;;5.93;;
45007;SDS011;30743;52.008;5.644;2022-12-18T10:01:25;9.73;;;5.78;;
45007;SDS011;30743;52.008;5.644;2022-12-18T10:03:52;10.93;;;5.78;;
45007;SDS011;30743;52.008;5.644;2022-12-18T10:06:27;8.10;;;5.50;;
45007;SDS011;30743;52.008;5.644;2022-12-18T10:17:34;10.05;;;5.70;;
45007;SDS011;30743;52.008;5.644;2022-12-18T10:20:11;8.95;;;5.28;;
45007;SDS011;30743;52.008;5.644;2022-12-18T10:27:39;8.93;;;5.63;;
45007;SDS011;30743;52.008;5.644;2022-12-18T10:30:12;9.35;;;5.38;;
45007;SDS011;30743;52.008;5.644;2022-12-18T10:32:40;8.98;;;5.55;;
45007;SDS011;30743;52.008;5.644;2022-12-18T10:35:07;8.80;;;5.90;;
45007;SDS011;30743;52.008;5.644;2022-12-18T10:37:58;8.32;;;5.38;;
45007;SDS011;30743;52.008;5.644;2022-12-18T10:40:26;8.85;;;5.65;;
45007;SDS011;30743;52.008;5.644;2022-12-18T10:43:03;9.45;;;5.57;;
45007;SDS011;30743;52.008;5.644;2022-12-18T10:45:29;9.18;;;5.45;;
45007;SDS011;30743;52.008;5.644;2022-12-18T10:47:54;10.27;;;5.80;;
45007;SDS011;30743;52.008;5.644;2022-12-18T10:50:33;8.45;;;5.30;;
45007;SDS011;30743;52.008;5.644;2022-12-18T10:53:02;9.90;;;6.10;;
45007;SDS011;30743;52.008;5.644;2022-12-18T10:55:32;9.63;;;5.93;;
45007;SDS011;30743;52.008;5.644;2022-12-18T10:58:13;9.75;;;6.25;;
45007;SDS011;30743;52.008;5.644;2022-12-18T11:00:45;9.98;;;5.70;;
45007;SDS011;30743;52.008;5.644;2022-12-18T11:03:36;9.73;;;5.82;;
45007;SDS011;30743;52.008;5.644;2022-12-18T11:08:35;9.55;;;6.07;;
45007;SDS011;30743;52.008;5.644;2022-12-18T11:11:01;12.40;;;6.40;;
45007;SDS011;30743;52.008;5.644;2022-12-18T11:13:28;10.55;;;6.32;;
45007;SDS011;30743;52.008;5.644;2022-12-18T11:15:55;11.30;;;6.57;;
45007;SDS011;30743;52.008;5.644;2022-12-18T11:20:51;10.00;;;5.80;;
45007;SDS011;30743;52.008;5.644;2022-12-18T11:23:36;10.00;;;5.85;;
45007;SDS011;30743;52.008;5.644;2022-12-18T11:26:09;10.02;;;5.85;;
45007;SDS011;30743;52.008;5.644;2022-12-18T11:28:36;10.25;;;6.28;;
45007;SDS011;30743;52.008;5.644;2022-12-18T11:33:40;10.18;;;5.82;;
45007;SDS011;30743;52.008;5.644;2022-12-18T11:36:11;9.27;;;5.97;;
45007;SDS011;30743;52.008;5.644;2022-12-18T11:38:39;9.35;;;5.97;;
45007;SDS011;30743;52.008;5.644;2022-12-18T11:41:11;9.40;;;6.30;;
45007;SDS011;30743;52.008;5.644;2022-12-18T11:44:25;11.93;;;6.00;;
45007;SDS011;30743;52.008;5.644;2022-12-18T11:47:00;9.70;;;6.03;;
45007;SDS011;30743;52.008;5.644;2022-12-18T11:49:32;10.63;;;6.32;;
45007;SDS011;30743;52.008;5.644;2022-12-18T11:54:39;10.02;;;6.00;;
45007;SDS011;30743;52.008;5.644;2022-12-18T12:08:05;10.45;;;6.10;;
45007;SDS011;30743;52.008;5.644;2022-12-18T12:10:45;12.05;;;7.22;;
45007;SDS011;30743;52.008;5.644;2022-12-18T12:13:37;11.35;;;6.35;;
45007;SDS011;30743;52.008;5.644;2022-12-18T12:16:32;10.82;;;6.82;;
45007;SDS011;30743;52.008;5.644;2022-12-18T12:22:10;9.50;;;6.15;;
45007;SDS011;30743;52.008;5.644;2022-12-18T12:30:21;10.52;;;6.60;;
45007;SDS011;30743;52.008;5.644;2022-12-18T12:38:57;11.05;;;6.25;;
45007;SDS011;30743;52.008;5.644;2022-12-18T12:41:32;11.25;;;6.88;;
45007;SDS011;30743;52.008;5.644;2022-12-18T12:44:20;11.77;;;6.85;;
45007;SDS011;30743;52.008;5.644;2022-12-18T12:46:50;12.15;;;6.47;;
45007;SDS011;30743;52.008;5.644;2022-12-18T12:51:50;10.90;;;6.50;;
45007;SDS011;30743;52.008;5.644;2022-12-18T12:54:23;10.90;;;6.55;;
45007;SDS011;30743;52.008;5.644;2022-12-18T12:59:22;11.48;;;6.63;;
45007;SDS011;30743;52.008;5.644;2022-12-18T13:04:56;11.13;;;7.00;;
45007;SDS011;30743;52.008;5.644;2022-12-18T13:07:29;10.90;;;6.85;;
45007;SDS011;30743;52.008;5.644;2022-12-18T13:15:36;11.40;;;7.03;;
45007;SDS011;30743;52.008;5.644;2022-12-18T13:20:42;13.25;;;7.13;;
45007;SDS011;30743;52.008;5.644;2022-12-18T13:23:33;15.35;;;7.35;;
45007;SDS011;30743;52.008;5.644;2022-12-18T13:31:10;13.10;;;6.93;;
45007;SDS011;30743;52.008;5.644;2022-12-18T13:33:37;11.98;;;6.90;;
45007;SDS011;30743;52.008;5.644;2022-12-18T13:41:38;12.07;;;6.78;;
45007;SDS011;30743;52.008;5.644;2022-12-18T13:46:43;11.30;;;6.55;;
45007;SDS011;30743;52.008;5.644;2022-12-18T13:49:19;13.75;;;7.25;;
45007;SDS011;30743;52.008;5.644;2022-12-18T13:51:50;10.95;;;6.95;;
45007;SDS011;30743;52.008;5.644;2022-12-18T13:57:02;12.65;;;7.13;;
45007;SDS011;30743;52.008;5.644;2022-12-18T13:59:33;15.68;;;7.70;;
45007;SDS011;30743;52.008;5.644;2022-12-18T14:02:13;14.65;;;7.22;;
45007;SDS011;30743;52.008;5.644;2022-12-18T14:04:39;13.05;;;7.85;;
45007;SDS011;30743;52.008;5.644;2022-12-18T14:07:10;13.10;;;7.60;;
45007;SDS011;30743;52.008;5.644;2022-12-18T14:10:01;13.75;;;7.20;;
45007;SDS011;30743;52.008;5.644;2022-12-18T14:12:32;12.45;;;7.75;;
45007;SDS011;30743;52.008;5.644;2022-12-18T14:15:24;12.35;;;7.28;;
45007;SDS011;30743;52.008;5.644;2022-12-18T14:18:01;12.48;;;7.03;;
45007;SDS011;30743;52.008;5.644;2022-12-18T14:20:27;12.70;;;7.28;;
45007;SDS011;30743;52.008;5.644;2022-12-18T14:22:55;13.35;;;7.90;;
45007;SDS011;30743;52.008;5.644;2022-12-18T14:25:23;10.88;;;7.20;;
45007;SDS011;30743;52.008;5.644;2022-12-18T14:27:51;11.40;;;6.70;;
45007;SDS011;30743;52.008;5.644;2022-12-18T14:33:00;12.45;;;7.32;;
45007;SDS011;30743;52.008;5.644;2022-12-18T14:35:54;12.57;;;7.82;;
45007;SDS011;30743;52.008;5.644;2022-12-18T14:38:33;13.18;;;7.60;;
45007;SDS011;30743;52.008;5.644;2022-12-18T14:43:36;13.15;;;7.72;;
45007;SDS011;30743;52.008;5.644;2022-12-18T14:46:04;12.57;;;7.30;;
45007;SDS011;30743;52.008;5.644;2022-12-18T14:48:50;14.65;;;7.28;;
45007;SDS011;30743;52.008;5.644;2022-12-18T14:51:17;12.50;;;7.78;;
45007;SDS011;30743;52.008;5.644;2022-12-18T14:56:16;12.32;;;7.30;;
45007;SDS011;30743;52.008;5.644;2022-12-18T14:58:46;13.60;;;7.38;;
45007;SDS011;30743;52.008;5.644;2022-12-18T15:01:27;14.48;;;7.78;;
45007;SDS011;30743;52.008;5.644;2022-12-18T15:04:01;12.75;;;7.38;;
45007;SDS011;30743;52.008;5.644;2022-12-18T15:06:32;12.45;;;7.45;;
45007;SDS011;30743;52.008;5.644;2022-12-18T15:09:03;15.68;;;7.45;;
45007;SDS011;30743;52.008;5.644;2022-12-18T15:11:45;12.38;;;7.28;;
45007;SDS011;30743;52.008;5.644;2022-12-18T15:16:57;14.00;;;8.32;;
45007;SDS011;30743;52.008;5.644;2022-12-18T15:19:35;13.02;;;7.45;;
45007;SDS011;30743;52.008;5.644;2022-12-18T15:22:14;13.18;;;8.18;;
45007;SDS011;30743;52.008;5.644;2022-12-18T15:24:48;12.82;;;7.65;;
45007;SDS011;30743;52.008;5.644;2022-12-18T15:29:59;12.30;;;7.47;;
45007;SDS011;30743;52.008;5.644;2022-12-18T15:34:50;11.80;;;7.00;;
45007;SDS011;30743;52.008;5.644;2022-12-18T15:37:35;13.38;;;7.68;;
45007;SDS011;30743;52.008;5.644;2022-12-18T15:40:02;14.18;;;8.18;;
45007;SDS011;30743;52.008;5.644;2022-12-18T15:42:28;13.98;;;7.60;;
45007;SDS011;30743;52.008;5.644;2022-12-18T15:45:13;16.52;;;8.70;;
45007;SDS011;30743;52.008;5.644;2022-12-18T15:47:39;14.02;;;8.30;;
45007;SDS011;30743;52.008;5.644;2022-12-18T15:50:06;15.63;;;8.70;;
45007;SDS011;30743;52.008;5.644;2022-12-18T15:52:34;14.25;;;8.50;;
45007;SDS011;30743;52.008;5.644;2022-12-18T15:55:14;13.82;;;8.45;;
45007;SDS011;30743;52.008;5.644;2022-12-18T15:58:00;14.43;;;8.65;;
45007;SDS011;30743;52.008;5.644;2022-12-18T16:00:25;12.95;;;7.78;;
45007;SDS011;30743;52.008;5.644;2022-12-18T16:02:51;13.80;;;8.02;;
45007;SDS011;30743;52.008;5.644;2022-12-18T16:05:18;14.82;;;8.35;;
45007;SDS011;30743;52.008;5.644;2022-12-18T16:07:45;13.57;;;7.95;;
45007;SDS011;30743;52.008;5.644;2022-12-18T16:10:10;17.80;;;9.32;;
45007;SDS011;30743;52.008;5.644;2022-12-18T16:12:36;13.90;;;8.73;;
45007;SDS011;30743;52.008;5.644;2022-12-18T16:15:02;13.98;;;8.50;;
45007;SDS011;30743;52.008;5.644;2022-12-18T16:17:29;16.17;;;9.07;;
45007;SDS011;30743;52.008;5.644;2022-12-18T16:19:54;13.77;;;8.48;;
45007;SDS011;30743;52.008;5.644;2022-12-18T16:22:21;13.88;;;8.48;;
45007;SDS011;30743;52.008;5.644;2022-12-18T16:24:50;15.02;;;9.00;;
45007;SDS011;30743;52.008;5.644;2022-12-18T16:27:16;17.25;;;9.15;;
45007;SDS011;30743;52.008;5.644;2022-12-18T16:29:42;14.20;;;8.85;;
45007;SDS011;30743;52.008;5.644;2022-12-18T16:32:08;18.00;;;9.43;;
45007;SDS011;30743;52.008;5.644;2022-12-18T16:34:38;15.32;;;9.35;;
45007;SDS011;30743;52.008;5.644;2022-12-18T16:37:04;16.23;;;9.25;;
45007;SDS011;30743;52.008;5.644;2022-12-18T16:39:32;17.38;;;9.18;;
45007;SDS011;30743;52.008;5.644;2022-12-18T16:42:05;15.38;;;8.98;;
45007;SDS011;30743;52.008;5.644;2022-12-18T16:44:37;16.55;;;9.82;;
45007;SDS011;30743;52.008;5.644;2022-12-18T16:47:02;19.13;;;9.60;;
45007;SDS011;30743;52.008;5.644;2022-12-18T16:49:28;14.98;;;9.13;;
45007;SDS011;30743;52.008;5.644;2022-12-18T16:51:54;15.25;;;9.27;;
45007;SDS011;30743;52.008;5.644;2022-12-18T16:54:20;21.98;;;9.57;;